createdAt,value
2018-12-09T00:01:33.422Z,95675.27
2018-12-09T00:04:01.718Z,95667.27
2018-12-09T00:06:29.979Z,95663.41
2018-12-09T00:08:58.249Z,95683.86
2018-12-09T00:11:26.599Z,95684.45
2018-12-09T00:13:54.962Z,95687.16
2018-12-09T00:16:23.299Z,95701.39
2018-12-09T00:18:51.576Z,95688.52
2018-12-09T00:21:19.816Z,95685.52
2018-12-09T00:23:48.135Z,95686.06
2018-12-09T00:26:16.388Z,95698.21
2018-12-09T00:28:44.684Z,95694.17
2018-12-09T00:31:12.992Z,95678.48
2018-12-09T00:33:41.331Z,95727.83
2018-12-09T00:36:09.594Z,95681.23
2018-12-09T00:38:37.849Z,95678.20
2018-12-09T00:41:06.146Z,95681.26
2018-12-09T00:43:34.388Z,95683.47
2018-12-09T00:46:02.652Z,95684.16
2018-12-09T00:48:31.181Z,95674.97
2018-12-09T00:50:59.436Z,95678.86
2018-12-09T00:53:27.692Z,95673.34
2018-12-09T00:55:56.015Z,95680.60
2018-12-09T00:58:24.260Z,95671.39
2018-12-09T01:00:52.531Z,95659.93
2018-12-09T01:03:20.861Z,95674.47
2018-12-09T01:05:49.124Z,95663.98
2018-12-09T01:08:17.440Z,95666.74
2018-12-09T01:10:45.744Z,95676.02
2018-12-09T01:13:14.056Z,95678.03
2018-12-09T01:15:42.298Z,95677.28
2018-12-09T01:18:10.545Z,95658.89
2018-12-09T01:20:38.852Z,95652.17
2018-12-09T01:23:07.126Z,95665.53
2018-12-09T01:25:35.433Z,95663.95
2018-12-09T01:28:03.684Z,95658.54
2018-12-09T01:30:31.937Z,95662.14
2018-12-09T01:33:00.184Z,95645.68
2018-12-09T01:35:28.429Z,95645.98
2018-12-09T01:37:56.695Z,95674.16
2018-12-09T01:40:24.937Z,95668.84
2018-12-09T01:42:53.280Z,95672.11
2018-12-09T01:45:22.046Z,95674.05
2018-12-09T01:47:50.287Z,95680.20
2018-12-09T01:50:18.535Z,95677.96
2018-12-09T01:52:51.319Z,95665.94
2018-12-09T01:55:19.559Z,95660.52
2018-12-09T01:57:47.809Z,95664.64
2018-12-09T02:00:16.382Z,95654.57
2018-12-09T02:02:44.699Z,95660.11
2018-12-09T02:05:12.966Z,95662.42
2018-12-09T02:07:41.508Z,95671.06
2018-12-09T02:10:09.878Z,95693.89
2018-12-09T02:12:38.212Z,95696.05
2018-12-09T02:15:06.677Z,95702.27
2018-12-09T02:17:34.989Z,95709.09
2018-12-09T02:20:03.348Z,95728.70
2018-12-09T02:22:31.605Z,95733.52
2018-12-09T02:24:59.857Z,95750.74
2018-12-09T02:27:28.112Z,95746.48
2018-12-09T02:29:56.657Z,95738.38
2018-12-09T02:32:24.911Z,95730.83
2018-12-09T02:34:53.408Z,95755.83
2018-12-09T02:37:21.648Z,95809.69
2018-12-09T02:39:49.901Z,95805.91
2018-12-09T02:42:18.376Z,95802.42
2018-12-09T02:44:46.620Z,95807.98
2018-12-09T02:47:14.864Z,95778.86
2018-12-09T02:49:43.116Z,95760.45
2018-12-09T02:52:11.668Z,95753.19
2018-12-09T02:54:40.031Z,95769.98
2018-12-09T02:57:08.296Z,95789.47
2018-12-09T02:59:36.551Z,95801.34
2018-12-09T03:02:05.021Z,95808.69
2018-12-09T03:04:33.393Z,95803.28
2018-12-09T03:07:01.656Z,95799.96
2018-12-09T03:09:29.903Z,95762.77
2018-12-09T03:11:58.246Z,95781.84
2018-12-09T03:14:26.900Z,95775.12
2018-12-09T03:16:55.373Z,95765.36
2018-12-09T03:19:23.631Z,95755.04
2018-12-09T03:21:51.872Z,95777.28
2018-12-09T03:24:20.132Z,95777.70
2018-12-09T03:26:48.435Z,95772.13
2018-12-09T03:29:16.676Z,95773.73
2018-12-09T03:31:45.152Z,95761.92
2018-12-09T03:34:13.480Z,95754.30
2018-12-09T03:36:41.722Z,95770.27
2018-12-09T03:39:09.976Z,95778.76
2018-12-09T03:41:38.274Z,95779.59
2018-12-09T03:44:06.739Z,95756.19
2018-12-09T03:46:35.081Z,95786.76
2018-12-09T03:49:03.789Z,95777.32
2018-12-09T03:51:32.187Z,95773.38
2018-12-09T03:54:00.517Z,95761.71
2018-12-09T03:56:28.749Z,95751.05
2018-12-09T03:58:57.105Z,95759.88
2018-12-09T04:01:25.548Z,95759.94
2018-12-09T04:03:54.121Z,95761.02
2018-12-09T04:06:22.361Z,95770.30
2018-12-09T04:08:50.613Z,95778.55
2018-12-09T04:11:18.863Z,95785.78
2018-12-09T04:13:47.113Z,95780.13
2018-12-09T04:16:15.458Z,95778.74
2018-12-09T04:18:43.721Z,95786.86
2018-12-09T04:21:11.965Z,95781.32
2018-12-09T04:23:40.220Z,95777.09
2018-12-09T04:26:08.466Z,95774.20
2018-12-09T04:28:36.829Z,95782.25
2018-12-09T04:31:05.068Z,95784.91
2018-12-09T04:33:33.304Z,95782.88
2018-12-09T04:36:02.165Z,95780.27
2018-12-09T04:38:30.415Z,95779.45
2018-12-09T04:40:59.685Z,95787.22
2018-12-09T04:43:28.039Z,95786.06
2018-12-09T04:45:56.286Z,95788.23
2018-12-09T04:48:24.705Z,95791.64
2018-12-09T04:50:53.054Z,95795.95
2018-12-09T04:53:21.292Z,95804.85
2018-12-09T04:55:49.556Z,95799.72
2018-12-09T04:58:17.797Z,95808.67
2018-12-09T05:00:55.279Z,95787.45
2018-12-09T05:03:23.665Z,95800.67
2018-12-09T05:05:52.023Z,95789.61
2018-12-09T05:08:20.385Z,95802.20
2018-12-09T05:10:48.781Z,95785.64
2018-12-09T05:13:17.041Z,95794.64
2018-12-09T05:15:45.301Z,95791.64
2018-12-09T05:18:14.544Z,95793.25
2018-12-09T05:20:42.805Z,95805.63
2018-12-09T05:23:11.104Z,95795.76
2018-12-09T05:25:39.360Z,95795.41
2018-12-09T05:28:07.623Z,95809.73
2018-12-09T05:30:35.960Z,95797.11
2018-12-09T05:33:04.709Z,95795.98
2018-12-09T05:35:32.968Z,95810.96
2018-12-09T05:38:01.228Z,95810.83
2018-12-09T05:40:29.468Z,95817.63
2018-12-09T05:42:57.716Z,95826.36
2018-12-09T05:45:26.386Z,95828.12
2018-12-09T05:47:54.644Z,95825.27
2018-12-09T05:50:22.949Z,95837.31
2018-12-09T05:52:51.205Z,95844.06
2018-12-09T05:55:19.609Z,95839.35
2018-12-09T05:57:48.157Z,95844.94
2018-12-09T06:00:16.474Z,95835.61
2018-12-09T06:02:57.704Z,95838.80
2018-12-09T06:05:25.964Z,95850.74
2018-12-09T06:07:54.222Z,95847.35
2018-12-09T06:10:22.620Z,95842.22
2018-12-09T06:12:50.882Z,95838.02
2018-12-09T06:15:19.241Z,95842.45
2018-12-09T06:17:47.588Z,95843.73
2018-12-09T06:20:15.828Z,95849.13
2018-12-09T06:22:44.189Z,95837.03
2018-12-09T06:25:12.435Z,95835.49
2018-12-09T06:27:40.698Z,95839.67
2018-12-09T06:30:09.306Z,95843.56
2018-12-09T06:32:37.620Z,95838.79
2018-12-09T06:35:06.070Z,95837.14
2018-12-09T06:37:34.421Z,95845.02
2018-12-09T06:40:02.888Z,95848.70
2018-12-09T06:42:31.160Z,95847.03
2018-12-09T06:44:59.504Z,95860.12
2018-12-09T06:47:27.751Z,95860.33
2018-12-09T06:49:56.010Z,95855.09
2018-12-09T06:52:24.248Z,95866.17
2018-12-09T06:54:52.489Z,95864.08
2018-12-09T06:57:20.855Z,95872.05
2018-12-09T06:59:49.201Z,95885.30
2018-12-09T07:02:17.456Z,95886.18
2018-12-09T07:04:45.816Z,95904.31
2018-12-09T07:07:14.126Z,95906.59
2018-12-09T07:09:42.372Z,95901.77
2018-12-09T07:12:10.732Z,95909.55
2018-12-09T07:14:38.989Z,95910.78
2018-12-09T07:17:07.312Z,95911.66
2018-12-09T07:19:35.551Z,95916.41
2018-12-09T07:22:03.792Z,95914.59
2018-12-09T07:24:32.057Z,95914.26
2018-12-09T07:27:00.379Z,95911.66
2018-12-09T07:29:28.672Z,95916.73
2018-12-09T07:31:56.933Z,95927.06
2018-12-09T07:34:25.176Z,95919.67
2018-12-09T07:36:53.477Z,95923.44
2018-12-09T07:39:21.865Z,95931.94
2018-12-09T07:41:50.144Z,95931.98
2018-12-09T07:44:18.397Z,95936.02
2018-12-09T07:46:46.679Z,95946.56
2018-12-09T07:49:15.082Z,95954.52
2018-12-09T07:51:43.378Z,95949.77
2018-12-09T07:54:11.727Z,95966.61
2018-12-09T07:56:40.042Z,95958.59
2018-12-09T07:59:09.378Z,95970.03
2018-12-09T08:01:37.625Z,95972.57
2018-12-09T08:04:05.960Z,95977.44
2018-12-09T08:06:34.242Z,95982.13
2018-12-09T08:09:02.646Z,95993.14
2018-12-09T08:11:30.964Z,95994.36
2018-12-09T08:13:59.358Z,95988.28
2018-12-09T08:16:27.661Z,95994.23
2018-12-09T08:18:56.047Z,95995.06
2018-12-09T08:21:24.451Z,95982.91
2018-12-09T08:23:53.000Z,95983.30
2018-12-09T08:26:21.268Z,95990.30
2018-12-09T08:28:49.512Z,95988.42
2018-12-09T08:31:17.821Z,95984.61
2018-12-09T08:33:46.055Z,95991.73
2018-12-09T08:36:14.324Z,95996.37
2018-12-09T08:38:42.560Z,96000.85
2018-12-09T08:41:10.820Z,95999.13
2018-12-09T08:43:39.086Z,95994.63
2018-12-09T08:46:07.334Z,96010.61
2018-12-09T08:48:35.595Z,96000.55
2018-12-09T08:51:03.844Z,95993.47
2018-12-09T08:53:32.096Z,96016.19
2018-12-09T08:56:01.020Z,96008.48
2018-12-09T08:58:29.293Z,96006.78
2018-12-09T09:00:57.619Z,96014.69
2018-12-09T09:03:25.905Z,96018.75
2018-12-09T09:05:54.157Z,96019.47
2018-12-09T09:08:22.587Z,96024.81
2018-12-09T09:10:50.845Z,96017.13
2018-12-09T09:13:19.107Z,96020.99
2018-12-09T09:15:47.385Z,96018.25
2018-12-09T09:18:15.711Z,96017.67
2018-12-09T09:20:43.972Z,96016.91
2018-12-09T09:23:12.238Z,96024.11
2018-12-09T09:25:40.481Z,96025.83
2018-12-09T09:28:08.821Z,96027.54
2018-12-09T09:30:37.120Z,96027.54
2018-12-09T09:33:05.383Z,96027.47
2018-12-09T09:35:33.644Z,96028.38
2018-12-09T09:38:01.954Z,96040.55
2018-12-09T09:40:30.197Z,96046.79
2018-12-09T09:42:58.448Z,96034.28
2018-12-09T09:45:26.736Z,96055.05
2018-12-09T09:48:00.365Z,96047.55
2018-12-09T09:50:28.705Z,96047.67
2018-12-09T09:52:57.004Z,96054.34
2018-12-09T09:55:25.253Z,96050.22
2018-12-09T09:57:53.547Z,96057.09
2018-12-09T10:00:21.934Z,96061.49
2018-12-09T10:02:50.201Z,96060.59
2018-12-09T10:05:18.479Z,96066.96
2018-12-09T10:07:46.749Z,96067.42
2018-12-09T10:10:15.008Z,96071.16
2018-12-09T10:12:43.268Z,96068.98
2018-12-09T10:15:11.582Z,96072.89
2018-12-09T10:17:39.955Z,96079.62
2018-12-09T10:20:08.335Z,96085.61
2018-12-09T10:22:36.628Z,96088.73
2018-12-09T10:25:05.493Z,96087.72
2018-12-09T10:27:33.785Z,96099.31
2018-12-09T10:30:02.061Z,96102.11
2018-12-09T10:32:30.372Z,96106.71
2018-12-09T10:34:58.621Z,96116.46
2018-12-09T10:37:26.989Z,96119.95
2018-12-09T10:39:55.269Z,96128.48
2018-12-09T10:42:23.511Z,96116.84
2018-12-09T10:44:51.753Z,96121.94
2018-12-09T10:47:20.096Z,96126.00
2018-12-09T10:49:48.398Z,96129.97
2018-12-09T10:52:16.746Z,96123.95
2018-12-09T10:54:44.993Z,96127.72
2018-12-09T10:57:13.240Z,96123.14
2018-12-09T10:59:41.504Z,96124.28
2018-12-09T11:02:15.200Z,96134.73
2018-12-09T11:04:43.635Z,96134.28
2018-12-09T11:07:11.957Z,96145.45
2018-12-09T11:09:40.220Z,96157.90
2018-12-09T11:12:08.481Z,96157.95
2018-12-09T11:14:36.773Z,96176.36
2018-12-09T11:17:05.025Z,96170.27
2018-12-09T11:19:33.266Z,96172.27
2018-12-09T11:22:01.508Z,96167.13
2018-12-09T11:24:29.771Z,96174.66
2018-12-09T11:26:58.056Z,96170.09
2018-12-09T11:29:26.329Z,96162.99
2018-12-09T11:31:54.600Z,96180.02
2018-12-09T11:34:22.853Z,96181.20
2018-12-09T11:36:51.908Z,96186.14
2018-12-09T11:39:20.162Z,96190.49
2018-12-09T11:41:48.528Z,96204.72
2018-12-09T11:44:16.809Z,96198.84
2018-12-09T11:46:45.093Z,96217.15
2018-12-09T11:49:13.341Z,96210.87
2018-12-09T11:51:41.600Z,96222.69
2018-12-09T11:54:09.856Z,96220.55
2018-12-09T11:56:38.188Z,96220.86
2018-12-09T11:59:06.563Z,96222.56
2018-12-09T12:01:34.831Z,96238.34
2018-12-09T12:04:03.089Z,96240.03
2018-12-09T12:06:31.400Z,96260.43
2018-12-09T12:08:59.644Z,96264.18
2018-12-09T12:11:27.914Z,96263.34
2018-12-09T12:13:56.161Z,96248.12
2018-12-09T12:16:24.400Z,96259.92
2018-12-09T12:18:52.679Z,96259.43
2018-12-09T12:21:20.952Z,96260.67
2018-12-09T12:23:49.236Z,96270.01
2018-12-09T12:26:17.549Z,96269.57
2018-12-09T12:28:45.788Z,96267.47
2018-12-09T12:31:14.054Z,96262.97
2018-12-09T12:33:42.352Z,96265.42
2018-12-09T12:36:10.691Z,96271.81
2018-12-09T12:38:38.992Z,96258.35
2018-12-09T12:41:07.260Z,96261.53
2018-12-09T12:43:35.513Z,96254.67
2018-12-09T12:46:03.820Z,96262.34
2018-12-09T12:48:32.146Z,96254.36
2018-12-09T12:51:00.485Z,96261.64
2018-12-09T12:53:28.751Z,96259.08
2018-12-09T12:55:57.001Z,96265.86
2018-12-09T12:58:25.250Z,96276.45
2018-12-09T13:00:53.580Z,96272.31
2018-12-09T13:03:21.835Z,96276.48
2018-12-09T13:05:50.273Z,96275.19
2018-12-09T13:08:18.584Z,96271.73
2018-12-09T13:10:46.829Z,96264.88
2018-12-09T13:13:16.233Z,96267.47
2018-12-09T13:15:44.472Z,96273.84
2018-12-09T13:18:12.742Z,96282.73
2018-12-09T13:20:40.984Z,96287.35
2018-12-09T13:23:09.249Z,96283.63
2018-12-09T13:25:37.643Z,96291.64
2018-12-09T13:28:05.902Z,96302.98
2018-12-09T13:30:34.240Z,96305.89
2018-12-09T13:33:02.502Z,96308.72
2018-12-09T13:35:30.760Z,96316.59
2018-12-09T13:37:59.020Z,96309.39
2018-12-09T13:40:27.325Z,96315.64
2018-12-09T13:42:55.582Z,96321.41
2018-12-09T13:45:23.830Z,96329.86
2018-12-09T13:47:52.355Z,96327.81
2018-12-09T13:50:20.676Z,96333.70
2018-12-09T13:52:48.909Z,96335.21
2018-12-09T13:55:17.165Z,96341.96
2018-12-09T13:57:45.417Z,96358.19
2018-12-09T14:03:03.210Z,96375.49
2018-12-09T14:05:31.510Z,96366.39
2018-12-09T14:07:59.768Z,96379.00
2018-12-09T14:10:28.080Z,96389.59
2018-12-09T14:12:56.392Z,96390.64
2018-12-09T14:15:24.697Z,96395.47
2018-12-09T14:17:53.063Z,96399.41
2018-12-09T14:20:21.302Z,96403.65
2018-12-09T14:22:49.653Z,96420.73
2018-12-09T14:25:17.925Z,96416.52
2018-12-09T14:27:46.179Z,96419.09
2018-12-09T14:30:14.709Z,96429.23
2018-12-09T14:32:42.971Z,96438.23
2018-12-09T14:35:11.224Z,96446.20
2018-12-09T14:37:39.505Z,96452.16
2018-12-09T14:40:08.672Z,96468.26
2018-12-09T14:42:36.968Z,96470.03
2018-12-09T14:45:06.916Z,96484.41
2018-12-09T14:47:35.180Z,96485.64
2018-12-09T14:50:03.532Z,96488.31
2018-12-09T14:52:31.784Z,96488.70
2018-12-09T14:55:00.215Z,96496.81
2018-12-09T14:57:28.452Z,96499.39
2018-12-09T14:59:56.709Z,96493.86
2018-12-09T15:02:24.965Z,96497.23
2018-12-09T15:04:53.210Z,96492.56
2018-12-09T15:07:21.489Z,96497.69
2018-12-09T15:09:50.020Z,96493.10
2018-12-09T15:12:18.496Z,96494.70
2018-12-09T15:14:46.932Z,96505.73
2018-12-09T15:17:15.245Z,96505.34
2018-12-09T15:19:43.482Z,96514.60
2018-12-09T15:22:11.749Z,96515.03
2018-12-09T15:24:41.615Z,96526.41
2018-12-09T15:27:10.227Z,96534.00
2018-12-09T15:29:38.560Z,96542.46
2018-12-09T15:32:06.829Z,96538.55
2018-12-09T15:34:35.092Z,96551.61
2018-12-09T15:37:03.405Z,96553.33
2018-12-09T15:39:31.655Z,96563.55
2018-12-09T15:41:59.934Z,96559.31
2018-12-09T15:44:28.191Z,96559.72
2018-12-09T15:46:56.433Z,96562.73
2018-12-09T15:49:24.700Z,96573.28
2018-12-09T15:51:52.955Z,96580.88
2018-12-09T15:57:04.084Z,96593.19
2018-12-09T15:59:32.568Z,96580.89
2018-12-09T16:02:01.026Z,96596.47
2018-12-09T16:04:29.304Z,96599.44
2018-12-09T16:06:57.586Z,96604.43
2018-12-09T16:09:25.861Z,96609.51
2018-12-09T16:11:54.121Z,96607.32
2018-12-09T16:14:22.376Z,96608.17
2018-12-09T16:16:50.660Z,96606.84
2018-12-09T16:19:18.910Z,96597.64
2018-12-09T16:21:47.166Z,96619.10
2018-12-09T16:24:15.435Z,96623.39
2018-12-09T16:26:43.695Z,96630.05
2018-12-09T16:29:12.144Z,96645.74
2018-12-09T16:31:40.434Z,96646.55
2018-12-09T16:34:08.704Z,96652.52
2018-12-09T16:36:36.977Z,96657.99
2018-12-09T16:39:06.844Z,96664.30
2018-12-09T16:41:35.129Z,96669.82
2018-12-09T16:44:03.623Z,96666.41
2018-12-09T16:46:31.897Z,96668.52
2018-12-09T16:49:00.239Z,96658.78
2018-12-09T16:51:28.493Z,96673.55
2018-12-09T16:53:56.767Z,96678.94
2018-12-09T16:56:25.012Z,96697.99
2018-12-09T16:58:53.268Z,96698.42
2018-12-09T17:01:21.650Z,96699.70
2018-12-09T17:03:49.915Z,96695.11
2018-12-09T17:06:18.180Z,96703.98
2018-12-09T17:08:46.512Z,96709.92
2018-12-09T17:11:14.823Z,96716.72
2018-12-09T17:13:43.073Z,96730.28
2018-12-09T17:16:11.348Z,96728.11
2018-12-09T17:18:39.650Z,96740.39
2018-12-09T17:21:07.910Z,96739.97
2018-12-09T17:23:36.399Z,96747.58
2018-12-09T17:26:04.705Z,96753.11
2018-12-09T17:28:33.061Z,96757.73
2018-12-09T17:31:01.383Z,96770.42
2018-12-09T17:33:29.645Z,96778.45
2018-12-09T17:35:57.922Z,96775.45
2018-12-09T17:38:26.169Z,96779.64
2018-12-09T17:40:54.428Z,96777.96
2018-12-09T17:43:22.704Z,96794.09
2018-12-09T17:45:50.980Z,96793.66
2018-12-09T17:48:19.402Z,96815.67
2018-12-09T17:50:47.747Z,96821.16
2018-12-09T17:53:17.158Z,96821.57
2018-12-09T17:55:45.480Z,96830.03
2018-12-09T17:58:13.772Z,96832.54
2018-12-09T18:00:42.045Z,96829.55
2018-12-09T18:03:10.382Z,96837.59
2018-12-09T18:05:38.743Z,96849.48
2018-12-09T18:08:07.227Z,96840.59
2018-12-09T18:10:35.875Z,96843.53
2018-12-09T18:13:04.424Z,96856.69
2018-12-09T18:17:58.472Z,96864.72
2018-12-09T18:20:26.898Z,96874.48
2018-12-09T18:22:55.823Z,96883.80
2018-12-09T18:27:53.572Z,96888.40
2018-12-09T18:30:22.786Z,96896.47
2018-12-09T18:32:52.956Z,96915.11
2018-12-09T18:35:22.153Z,96908.30
2018-12-09T18:37:51.331Z,96912.11
2018-12-09T18:40:20.585Z,96925.65
2018-12-09T18:42:50.384Z,96920.58
2018-12-09T18:45:19.827Z,96940.09
2018-12-09T18:47:49.104Z,96927.38
2018-12-09T18:50:18.346Z,96947.69
2018-12-09T18:52:47.575Z,96956.59
2018-12-09T18:55:16.826Z,96976.16
2018-12-09T18:57:46.224Z,96973.61
2018-12-09T19:00:15.640Z,96959.72
2018-12-09T19:02:44.872Z,96996.08
2018-12-09T19:05:14.232Z,97011.34
2018-12-09T19:07:43.505Z,97020.30
2018-12-09T19:10:12.608Z,97040.62
2018-12-09T19:12:41.523Z,97054.63
2018-12-09T19:15:10.789Z,97049.16
2018-12-09T19:17:40.109Z,97052.96
2018-12-09T19:20:09.466Z,97052.13
2018-12-09T19:22:38.804Z,97061.01
2018-12-09T19:25:08.127Z,97067.80
2018-12-09T19:27:37.384Z,97073.30
2018-12-09T19:30:07.351Z,97077.50
2018-12-09T19:32:36.679Z,97083.84
2018-12-09T19:35:05.955Z,97094.00
2018-12-09T19:37:35.158Z,97099.49
2018-12-09T19:40:05.896Z,97105.41
2018-12-09T19:42:35.261Z,97109.23
2018-12-09T19:45:04.530Z,97118.95
2018-12-09T19:47:33.773Z,97137.15
2018-12-09T19:50:03.177Z,97124.44
2018-12-09T19:52:32.422Z,97124.88
2018-12-09T19:55:01.616Z,97154.11
2018-12-09T19:57:30.966Z,97135.48
2018-12-09T20:00:00.228Z,97152.83
2018-12-09T20:02:29.463Z,97149.89
2018-12-09T20:04:58.766Z,97158.31
2018-12-09T20:07:27.960Z,97158.31
2018-12-09T20:09:57.442Z,97157.50
2018-12-09T20:12:26.665Z,97173.98
2018-12-09T20:14:55.873Z,97180.77
2018-12-09T20:17:26.150Z,97168.51
2018-12-09T20:19:55.427Z,97185.88
2018-12-09T20:22:24.667Z,97186.30
2018-12-09T20:24:54.076Z,97178.66
2018-12-09T20:27:23.244Z,97191.35
2018-12-09T20:29:52.626Z,97190.92
2018-12-09T20:32:21.937Z,97207.00
2018-12-09T20:34:51.149Z,97207.84
2018-12-09T20:37:20.437Z,97220.52
2018-12-09T20:39:49.769Z,97227.67
2018-12-09T20:42:19.043Z,97229.75
2018-12-09T20:44:48.441Z,97236.92
2018-12-09T20:47:17.651Z,97227.16
2018-12-09T20:49:46.894Z,97225.48
2018-12-09T20:52:16.201Z,97229.31
2018-12-09T20:54:45.371Z,97229.72
2018-12-09T20:57:14.730Z,97236.92
2018-12-09T20:59:43.965Z,97236.49
2018-12-09T21:02:13.303Z,97242.05
2018-12-09T21:04:42.551Z,97244.13
2018-12-09T21:07:11.801Z,97260.18
2018-12-09T21:09:41.039Z,97269.56
2018-12-09T21:12:10.424Z,97276.75
2018-12-09T21:14:39.787Z,97279.31
2018-12-09T21:17:08.983Z,97272.53
2018-12-09T21:19:38.247Z,97285.68
2018-12-09T21:22:07.489Z,97284.81
2018-12-09T21:24:36.576Z,97286.49
2018-12-09T21:27:05.698Z,97293.26
2018-12-09T21:29:35.055Z,97294.56
2018-12-09T21:32:04.193Z,97297.56
2018-12-09T21:34:33.339Z,97298.39
2018-12-09T21:37:02.589Z,97308.13
2018-12-09T21:39:31.811Z,97324.58
2018-12-09T21:42:00.713Z,97315.70
2018-12-09T21:44:29.292Z,97320.00
2018-12-09T21:46:57.712Z,97333.11
2018-12-09T21:49:25.969Z,97319.55
2018-12-09T21:51:54.222Z,97329.25
2018-12-09T21:54:22.503Z,97338.98
2018-12-09T21:56:50.737Z,97337.23
2018-12-09T21:59:19.057Z,97345.72
2018-12-09T22:01:47.465Z,97368.53
2018-12-09T22:04:15.792Z,97353.72
2018-12-09T22:06:44.051Z,97357.89
2018-12-09T22:09:12.291Z,97356.61
2018-12-09T22:11:40.559Z,97370.16
2018-12-09T22:14:08.876Z,97379.06
2018-12-09T22:16:37.213Z,97384.13
2018-12-09T22:19:05.617Z,97387.89
2018-12-09T22:21:33.947Z,97383.20
2018-12-09T22:24:02.279Z,97401.84
2018-12-09T22:26:30.708Z,97391.27
2018-12-09T22:28:59.013Z,97395.90
2018-12-09T22:31:27.341Z,97413.23
2018-12-09T22:33:55.677Z,97420.00
2018-12-09T22:36:24.480Z,97415.38
2018-12-09T22:38:52.817Z,97416.25
2018-12-09T22:41:21.210Z,97427.22
2018-12-09T22:43:49.641Z,97430.21
2018-12-09T22:46:17.981Z,97420.88
2018-12-09T22:48:46.295Z,97435.28
2018-12-09T22:51:14.755Z,97439.52
2018-12-09T22:53:43.186Z,97442.05
2018-12-09T22:56:11.523Z,97446.77
2018-12-09T22:58:39.788Z,97450.15
2018-12-09T23:01:20.022Z,97446.82
2018-12-09T23:03:48.267Z,97455.28
2018-12-09T23:06:16.560Z,97445.49
2018-12-09T23:08:44.829Z,97441.71
2018-12-09T23:11:13.075Z,97471.33
2018-12-09T23:13:41.380Z,97470.11
2018-12-09T23:16:09.643Z,97468.39
2018-12-09T23:18:37.941Z,97476.01
2018-12-09T23:21:06.190Z,97482.38
2018-12-09T23:23:34.459Z,97475.59
2018-12-09T23:26:02.696Z,97484.84
2018-12-09T23:28:30.948Z,97482.27
2018-12-09T23:30:59.201Z,97478.46
2018-12-09T23:33:27.454Z,97488.97
2018-12-09T23:35:55.723Z,97496.91
2018-12-09T23:38:24.121Z,97496.38
2018-12-09T23:40:52.391Z,97517.91
2018-12-09T23:43:20.642Z,97520.80
2018-12-09T23:45:48.892Z,97526.13
2018-12-09T23:48:18.148Z,97526.77
2018-12-09T23:50:46.384Z,97516.54
2018-12-09T23:53:14.651Z,97523.20
2018-12-09T23:55:42.900Z,97532.50
2018-12-09T23:58:11.140Z,97521.22
